createdAt,value
2023-03-13T00:01:51.751Z,7.50
2023-03-13T00:06:02.490Z,6.90
2023-03-13T00:10:11.968Z,8.80
2023-03-13T00:14:20.028Z,7.30
2023-03-13T00:18:28.134Z,7.40
2023-03-13T00:22:36.769Z,7.90
2023-03-13T00:26:45.245Z,7.90
2023-03-13T00:30:53.295Z,8.10
2023-03-13T00:35:01.164Z,7.40
2023-03-13T00:39:09.301Z,7.20
2023-03-13T00:43:16.852Z,8.80
2023-03-13T00:47:24.667Z,7.60
2023-03-13T00:51:32.610Z,7.70
2023-03-13T00:55:40.568Z,7.30
2023-03-13T00:59:48.845Z,7.00
2023-03-13T01:03:57.879Z,7.40
2023-03-13T01:08:07.056Z,7.10
2023-03-13T01:12:14.874Z,8.40
2023-03-13T01:16:24.363Z,9.30
2023-03-13T01:20:32.102Z,9.20
2023-03-13T01:24:40.704Z,9.60
2023-03-13T01:28:48.841Z,10.90
2023-03-13T01:32:58.200Z,9.50
2023-03-13T01:37:06.534Z,8.80
2023-03-13T01:41:15.327Z,12.20
2023-03-13T01:46:06.267Z,9.40
2023-03-13T01:50:15.384Z,11.70
2023-03-13T01:54:26.782Z,10.90
2023-03-13T01:58:38.384Z,14.10
2023-03-13T02:02:49.098Z,11.60
2023-03-13T02:07:00.232Z,10.30
2023-03-13T02:11:16.683Z,11.40
2023-03-13T02:15:26.315Z,10.50
2023-03-13T02:19:37.850Z,10.80
2023-03-13T02:23:54.960Z,13.20
2023-03-13T02:28:05.488Z,11.60
2023-03-13T02:32:13.407Z,12.90
2023-03-13T02:36:21.201Z,12.50
2023-03-13T02:40:32.393Z,12.40
2023-03-13T02:44:42.887Z,12.80
2023-03-13T02:48:52.173Z,15.20
2023-03-13T02:53:02.746Z,15.90
2023-03-13T02:57:11.152Z,15.30
2023-03-13T03:01:18.833Z,16.20
2023-03-13T03:05:29.104Z,15.90
2023-03-13T03:09:36.780Z,18.60
2023-03-13T03:13:44.593Z,15.70
2023-03-13T03:17:52.875Z,18.50
2023-03-13T03:22:01.075Z,19.30
2023-03-13T03:26:09.751Z,18.00
2023-03-13T03:30:18.712Z,16.50
2023-03-13T03:34:26.262Z,16.50
2023-03-13T03:38:34.600Z,18.00
2023-03-13T03:42:43.720Z,19.30
2023-03-13T03:46:51.281Z,17.90
2023-03-13T03:50:58.994Z,19.30
2023-03-13T03:55:07.505Z,15.10
2023-03-13T03:59:15.385Z,15.10
2023-03-13T04:03:23.864Z,16.50
2023-03-13T04:07:32.279Z,18.90
2023-03-13T04:11:40.130Z,18.70
2023-03-13T04:15:48.951Z,21.30
2023-03-13T04:19:56.476Z,16.50
2023-03-13T04:24:04.225Z,16.00
2023-03-13T04:28:13.146Z,16.60
2023-03-13T04:32:20.788Z,16.70
2023-03-13T04:36:29.468Z,21.50
2023-03-13T04:40:39.002Z,16.70
2023-03-13T04:44:46.777Z,18.00
2023-03-13T04:48:55.033Z,18.20
2023-03-13T04:53:02.360Z,16.40
2023-03-13T04:57:10.457Z,19.00
2023-03-13T05:01:19.036Z,17.60
2023-03-13T05:05:27.005Z,19.90
2023-03-13T05:09:35.899Z,19.60
2023-03-13T05:13:43.646Z,22.90
2023-03-13T05:17:54.197Z,20.40
2023-03-13T05:22:03.860Z,18.10
2023-03-13T05:26:12.282Z,17.70
2023-03-13T05:30:20.700Z,18.90
2023-03-13T05:34:29.756Z,20.80
2023-03-13T05:38:37.920Z,21.00
2023-03-13T05:42:45.807Z,21.60
2023-03-13T05:46:53.957Z,21.80
2023-03-13T05:51:04.746Z,18.60
2023-03-13T05:55:20.410Z,21.80
2023-03-13T05:59:34.634Z,20.00
2023-03-13T06:03:47.113Z,21.80
2023-03-13T06:08:03.288Z,20.40
2023-03-13T06:12:15.554Z,24.00
2023-03-13T06:16:29.001Z,17.70
2023-03-13T06:20:42.992Z,17.20
2023-03-13T06:24:54.414Z,15.90
2023-03-13T06:29:05.998Z,25.20
2023-03-13T06:33:22.179Z,19.50
2023-03-13T06:37:35.718Z,17.80
2023-03-13T06:41:46.802Z,17.30
2023-03-13T06:45:56.257Z,17.30
2023-03-13T06:50:12.708Z,16.50
2023-03-13T06:54:23.422Z,18.00
2023-03-13T06:58:35.504Z,17.40
2023-03-13T07:02:43.516Z,18.50
2023-03-13T07:06:52.651Z,16.40
2023-03-13T07:11:06.926Z,18.10
2023-03-13T07:15:14.984Z,16.60
2023-03-13T07:19:23.025Z,15.60
2023-03-13T07:23:32.341Z,17.40
2023-03-13T07:27:41.114Z,14.10
2023-03-13T07:31:48.929Z,13.70
2023-03-13T07:36:02.169Z,16.30
2023-03-13T07:40:19.216Z,15.80
2023-03-13T07:44:28.902Z,14.10
2023-03-13T07:48:37.598Z,14.20
2023-03-13T07:52:45.858Z,13.00
2023-03-13T07:57:01.384Z,12.30
2023-03-13T08:01:14.402Z,15.20
2023-03-13T08:05:29.742Z,12.30
2023-03-13T08:09:38.640Z,11.00
2023-03-13T08:13:52.888Z,12.60
2023-03-13T08:18:12.881Z,12.90
2023-03-13T08:22:26.146Z,12.10
2023-03-13T08:26:38.042Z,15.50
2023-03-13T08:30:46.095Z,14.90
2023-03-13T08:34:58.407Z,13.00
2023-03-13T08:39:14.942Z,10.40
2023-03-13T08:43:23.091Z,9.70
2023-03-13T08:47:30.783Z,12.80
2023-03-13T08:51:40.487Z,11.30
2023-03-13T08:55:55.576Z,10.50
2023-03-13T09:00:06.163Z,11.40
2023-03-13T09:04:24.832Z,11.60
2023-03-13T09:08:36.086Z,10.10
2023-03-13T09:12:51.119Z,16.10
2023-03-13T09:17:00.101Z,8.90
2023-03-13T09:21:11.599Z,14.50
2023-03-13T09:25:21.908Z,10.40
2023-03-13T09:29:29.235Z,11.50
2023-03-13T09:33:40.204Z,11.50
2023-03-13T09:37:49.991Z,9.80
2023-03-13T09:42:07.921Z,9.20
2023-03-13T09:46:25.216Z,10.20
2023-03-13T09:50:39.286Z,12.80
2023-03-13T09:54:51.996Z,8.80
2023-03-13T09:59:09.293Z,13.70
2023-03-13T10:03:22.442Z,11.70
2023-03-13T10:07:30.255Z,10.50
2023-03-13T10:11:42.274Z,11.40
2023-03-13T10:15:54.255Z,11.60
2023-03-13T10:20:15.991Z,14.80
2023-03-13T10:24:39.837Z,13.20
2023-03-13T10:28:49.347Z,14.80
2023-03-13T10:33:02.047Z,11.10
2023-03-13T10:37:15.507Z,12.30
2023-03-13T10:41:28.715Z,10.50
2023-03-13T10:45:38.190Z,13.80
2023-03-13T10:49:52.459Z,11.40
2023-03-13T10:54:00.400Z,11.50
2023-03-13T10:58:22.181Z,9.70
2023-03-13T11:02:36.753Z,9.00
2023-03-13T11:06:53.000Z,7.70
2023-03-13T11:11:03.477Z,9.00
2023-03-13T11:15:19.373Z,11.20
2023-03-13T11:19:43.750Z,13.30
2023-03-13T11:24:01.914Z,9.10
2023-03-13T11:28:20.759Z,8.90
2023-03-13T11:32:35.625Z,10.40
2023-03-13T11:36:47.550Z,6.60
2023-03-13T11:41:01.442Z,8.30
2023-03-13T11:45:22.305Z,10.70
2023-03-13T11:49:55.876Z,10.90
2023-03-13T11:54:19.054Z,8.60
2023-03-13T11:58:40.047Z,10.20
2023-03-13T12:02:53.187Z,7.30
2023-03-13T12:07:06.006Z,8.00
2023-03-13T12:11:18.771Z,8.60
2023-03-13T12:15:30.053Z,7.80
2023-03-13T12:19:43.017Z,6.50
2023-03-13T12:23:54.932Z,8.00
2023-03-13T12:28:13.054Z,7.50
2023-03-13T12:32:29.393Z,8.90
2023-03-13T12:36:43.854Z,7.70
2023-03-13T12:40:55.205Z,11.80
2023-03-13T12:45:03.309Z,7.30
2023-03-13T12:49:34.252Z,8.50
2023-03-13T12:54:13.771Z,7.20
2023-03-13T12:58:30.056Z,9.80
2023-03-13T13:02:38.369Z,9.80
2023-03-13T13:07:02.585Z,9.80
2023-03-13T13:11:44.604Z,7.90
2023-03-13T13:16:03.218Z,10.60
2023-03-13T13:20:35.872Z,9.50
2023-03-13T13:24:51.844Z,8.80
2023-03-13T13:29:02.554Z,12.00
2023-03-13T13:33:38.205Z,12.30
2023-03-13T13:37:49.701Z,12.20
2023-03-13T13:41:57.958Z,10.00
2023-03-13T13:46:17.359Z,9.00
2023-03-13T13:50:31.310Z,11.60
2023-03-13T13:54:57.320Z,7.80
2023-03-13T13:59:25.288Z,7.70
2023-03-13T14:03:42.301Z,10.10
2023-03-13T14:07:58.896Z,12.70
2023-03-13T14:12:28.434Z,13.20
2023-03-13T14:16:36.816Z,11.60
2023-03-13T14:20:56.179Z,11.90
2023-03-13T14:25:04.272Z,14.60
2023-03-13T14:29:20.898Z,11.80
2023-03-13T14:33:30.072Z,13.70
2023-03-13T14:37:42.683Z,11.10
2023-03-13T14:41:54.349Z,12.80
2023-03-13T14:46:02.324Z,12.60
2023-03-13T14:50:15.005Z,14.60
2023-03-13T14:54:31.567Z,10.80
2023-03-13T14:58:39.863Z,8.00
2023-03-13T15:02:47.816Z,7.40
2023-03-13T15:07:05.084Z,8.80
2023-03-13T15:11:23.928Z,9.60
2023-03-13T15:15:33.447Z,8.70
2023-03-13T15:19:41.384Z,10.20
2023-03-13T15:23:52.322Z,9.50
2023-03-13T15:28:03.999Z,8.70
2023-03-13T15:32:18.528Z,9.40
2023-03-13T15:36:26.295Z,8.50
2023-03-13T15:40:34.383Z,9.90
2023-03-13T15:44:42.679Z,8.20
2023-03-13T15:48:54.154Z,8.30
2023-03-13T15:53:02.413Z,10.30
2023-03-13T15:57:13.432Z,7.00
2023-03-13T16:01:23.600Z,11.80
2023-03-13T16:05:33.659Z,10.50
2023-03-13T16:09:41.748Z,9.10
2023-03-13T16:13:50.383Z,8.70
2023-03-13T16:17:59.016Z,10.50
2023-03-13T16:22:11.926Z,10.00
2023-03-13T16:26:21.875Z,10.80
2023-03-13T16:30:34.567Z,9.40
2023-03-13T16:34:45.536Z,8.50
2023-03-13T16:38:53.530Z,9.10
2023-03-13T16:43:01.345Z,9.70
2023-03-13T16:47:19.442Z,9.30
2023-03-13T16:51:28.649Z,12.90
2023-03-13T16:55:37.924Z,12.20
2023-03-13T16:59:46.134Z,8.90
2023-03-13T17:03:55.119Z,8.30
2023-03-13T17:08:04.197Z,9.00
2023-03-13T17:12:12.622Z,8.60
2023-03-13T17:16:28.639Z,12.10
2023-03-13T17:20:37.468Z,17.00
2023-03-13T17:24:46.460Z,16.80
2023-03-13T17:28:56.537Z,17.20
2023-03-13T17:33:07.196Z,17.90
2023-03-13T17:37:20.622Z,13.30
2023-03-13T17:41:30.740Z,15.60
2023-03-13T17:45:42.389Z,15.50
2023-03-13T17:49:51.807Z,13.50
2023-03-13T17:54:00.902Z,12.50
2023-03-13T17:58:09.110Z,10.60
2023-03-13T18:02:19.802Z,13.40
2023-03-13T18:06:30.305Z,12.90
2023-03-13T18:10:38.924Z,13.90
2023-03-13T18:14:49.616Z,12.40
2023-03-13T18:18:58.279Z,13.40
2023-03-13T18:23:07.168Z,11.00
2023-03-13T18:27:17.555Z,10.30
2023-03-13T18:31:25.416Z,16.80
2023-03-13T18:35:34.034Z,16.70
2023-03-13T18:39:42.353Z,17.90
2023-03-13T18:43:50.892Z,26.20
2023-03-13T18:47:59.133Z,28.00
2023-03-13T18:52:08.428Z,21.10
2023-03-13T18:56:22.037Z,19.90
2023-03-13T19:00:33.839Z,24.20
2023-03-13T19:04:42.421Z,25.00
2023-03-13T19:08:53.545Z,18.60
2023-03-13T19:13:03.189Z,15.90
2023-03-13T19:17:18.196Z,12.30
2023-03-13T19:21:27.798Z,13.40
2023-03-13T19:25:38.185Z,13.80
2023-03-13T19:29:47.131Z,19.50
2023-03-13T19:33:55.626Z,17.00
2023-03-13T19:38:03.492Z,12.50
2023-03-13T19:42:11.627Z,13.50
2023-03-13T19:46:30.187Z,14.40
2023-03-13T19:50:40.358Z,15.20
2023-03-13T19:54:48.150Z,12.60
2023-03-13T19:59:00.156Z,18.10
2023-03-13T20:03:08.458Z,13.40
2023-03-13T20:07:17.824Z,15.50
2023-03-13T20:11:28.267Z,16.50
2023-03-13T20:15:38.918Z,16.50
2023-03-13T20:19:46.354Z,16.30
2023-03-13T20:23:54.245Z,14.90
2023-03-13T20:28:02.659Z,11.20
2023-03-13T20:32:11.930Z,16.30
2023-03-13T20:36:21.736Z,14.20
2023-03-13T20:40:32.711Z,10.00
2023-03-13T20:44:40.927Z,11.80
2023-03-13T20:48:48.622Z,12.50
2023-03-13T20:52:58.387Z,11.20
2023-03-13T20:57:06.404Z,12.90
2023-03-13T21:01:15.658Z,11.00
2023-03-13T21:05:25.461Z,11.10
2023-03-13T21:09:36.064Z,16.10
2023-03-13T21:13:44.381Z,12.40
2023-03-13T21:17:54.060Z,9.70
2023-03-13T21:22:02.831Z,8.10
2023-03-13T21:26:11.224Z,9.20
2023-03-13T21:30:21.352Z,8.00
2023-03-13T21:34:29.983Z,8.40
2023-03-13T21:38:37.555Z,8.10
2023-03-13T21:42:46.681Z,11.30
2023-03-13T21:46:54.424Z,9.60
2023-03-13T21:51:02.899Z,8.70
2023-03-13T21:55:12.389Z,7.70
2023-03-13T21:59:24.504Z,10.90
2023-03-13T22:03:33.045Z,9.50
2023-03-13T22:07:40.571Z,11.20
2023-03-13T22:11:48.704Z,10.30
2023-03-13T22:15:56.683Z,9.60
2023-03-13T22:20:06.763Z,10.10
2023-03-13T22:24:14.743Z,11.30
2023-03-13T22:28:22.121Z,10.20
2023-03-13T22:32:30.345Z,11.20
2023-03-13T22:36:38.374Z,8.60
2023-03-13T22:40:46.055Z,9.10
2023-03-13T22:44:55.435Z,9.90
2023-03-13T22:49:03.426Z,7.80
2023-03-13T22:53:11.157Z,13.30
2023-03-13T22:57:19.030Z,9.60
2023-03-13T23:01:26.880Z,8.50
2023-03-13T23:05:38.070Z,8.20
2023-03-13T23:09:45.821Z,9.50
2023-03-13T23:13:54.578Z,10.70
2023-03-13T23:18:02.426Z,10.40
2023-03-13T23:22:13.186Z,10.70
2023-03-13T23:26:21.388Z,11.70
2023-03-13T23:30:29.364Z,10.40
2023-03-13T23:34:38.592Z,9.80
2023-03-13T23:38:52.521Z,10.60
2023-03-13T23:43:01.077Z,9.90
2023-03-13T23:47:10.128Z,9.60
2023-03-13T23:51:18.231Z,11.00
2023-03-13T23:55:26.170Z,9.80
2023-03-13T23:59:33.968Z,11.00
